Mc Alester Regional Airport
KMLC : now visible

Airfield :











YOU CAN JOIN US ON...

 
LOGIN :

Register | Disclaimer

   EN    FR    IT 

 









Legend :    VFR   Marginal VFR   IFR   Intensive IFR   Very Intensive IFR
Visi :
Ceiling :
>= 8 km
>= 3000ft
5 to 8 km
1000 to 3000 ft
1500m to 5 km
500 to 1000 ft
800 to 1500m
200 to 500 ft
< 800m
< 200 ft
Symbols :   Thunderstorms  Fog  Heavy snow  Heavy precipitations  Wind > 20 kt






- Airport Elevation : 770 ft


KMLC - Mc Alester Regional

CURRENT METAR :
  • 041553Z AUTO 36007KT 5SM BR OVC005 04/03 A3014 RMK AO2 SLP207 T00440033

EXPIRED METARs :
  • 041504Z AUTO 01007KT 3SM BR OVC005 04/03 A3013 RMK AO2 T00440033
  • 041453Z AUTO 02007KT 2 1/2SM BR OVC005 04/03 A3012 RMK AO2 RAB1356E08 SLP203 P0000 60000 T00440033 58002
  • 041441Z AUTO 02009KT 2SM BR OVC005 04/03 A3012 RMK AO2 RAB1356E08 P0000 T00440033
  • 041412Z AUTO 01010KT 2SM BR OVC004 04/03 A3013 RMK AO2 RAB1356E08 P0000 T00390028
  • 041353Z AUTO 01008KT 2SM BR OVC005 04/03 A3013 RMK AO2 RAE45 SLP205 P0000 T00390028
  • 041321Z AUTO 01007KT 1 1/2SM -RA BR OVC004 03/03 A3013 RMK AO2 P0000 T00330028

TAF KMLC
Valid from the 04 at 13:00 until the 05 at 12:00 UTC


041257Z 0413/0512 01008KT 4SM -DZ BR OVC005
TEMPO 0413/0416 2SM -DZ BR
FM041700 01007KT P6SM OVC008
FM050100 01003KT P6SM OVC008



MET'MAP, your aeronautical weather chart ! - Copyright ORBIFLY December 2007 - Disclaimer

ORBIFLY MET'MAP TEAM :

Programming & Development : Alexandra Zaïnal
Concept & original design : Baudouin d'Aumeries
Assistance for programming : Marc-Olivier Méhu
Technical & hardware support : Manuel Goepfert

Contact : metmap@orbifly.com




SOURCES & CREDITS :

   NOAA       Earth
Advisory